Airfield :
LOGIN :

Register | Disclaimer

   EN    FR    IT 

 










Legend :    VFR   Marginal VFR   IFR   Intensive IFR   Very Intensive IFR
Visi :
Ceiling :
>= 8 km
>= 3000ft
5 to 8 km
1000 to 3000 ft
1500m to 5 km
500 to 1000 ft
800 to 1500m
200 to 500 ft
< 800m
< 200 ft
Symbols :   Thunderstorms  Fog  Heavy snow  Heavy precipitations  Wind > 20 kt
SIGMETs :     Misc.  Thunderstorms  Icing  Turbulence  Mountain Waves  Volcanic Ashes







- Airport Elevation : 33 ft
- IATA code : MHZ


EGUN - RAF Mildenhall

CURRENT METAR :
  • 261158Z AUTO 09014KT 9999 FEW210 13/09 A3028 RMK AO2 SLP257 T01330085 10138 20015 57003 $

EXPIRED METARs :
  • 261058Z AUTO 09012KT 9999 CLR 13/08 A3029 RMK AO2 SLP261 T01300080 $
  • 260958Z AUTO 09012KT 9999 CLR 12/09 A3029 RMK AO2 SLP261 T01210090 $

TAF TAF EGUN
Valid from the 26 at 12:00 until the 27 at 18:00 UTC


261205Z 2612/2718 09012KT 9999 FEW200 QNH3023INS
TEMPO 2612/2617 08010G20KT
BECMG 2616/2617 08009KT 9999 FEW100 QNH3023INS
TEMPO 2704/2709 8000 BR TX15/2615Z TN01/2705Z
No reported NOTAMs for that airfield.



MET'MAP, your aeronautical weather chart ! - Copyright ORBIFLY December 2007 - Disclaimer

ORBIFLY MET'MAP TEAM :

Programming & Development : Alexandra Zaïnal
Concept & Development : Baudouin d'Aumeries
Co-Development & Prog : Marc-Olivier Méhu
Technical & hardware support : Manuel Goepfert

Contact : metmap@orbifly.com




SOURCES & CREDITS :

   NOAA